Time;durP1;ratioP1;P1;durP2;ratioP2;P2;SDS_P1;SDS_P2;PMS_P1;PMS_P2;Temp;Humidity;BMP_temperature;BMP_pressure;BME280_temperature;BME280_humidity;BME280_pressure;Samples;Min_cycle;Max_cycle;Signal;HPM_P1;HPM_P2
2022/04/10 05:20:22;;;;;;;10.50;3.97;;;;;;;9.68;nan;100918.44;4935928;28;20550;-86
2022/04/10 05:22:49;;;;;;;13.73;4.47;;;;;;;9.69;nan;100922.84;4943578;28;20945;-86
2022/04/10 05:25:17;;;;;;;19.33;5.00;;;;;;;9.62;nan;100907.41;4959355;28;20878;-85
2022/04/10 05:27:45;;;;;;;12.43;4.90;;;;;;;9.68;nan;100918.44;4943428;28;20447;-85
2022/04/10 05:30:13;;;;;;;16.43;4.70;;;;;;;9.64;nan;100919.81;4943336;28;20458;-85
2022/04/10 05:32:44;;;;;;;13.63;4.60;;;;;;;9.63;nan;100920.00;4943442;28;20826;-85
2022/04/10 05:35:13;;;;;;;9.57;3.70;;;;;;;9.66;nan;100925.94;4943378;28;20450;-86
2022/04/10 05:37:41;;;;;;;14.00;5.17;;;;;;;9.62;nan;100924.63;4943156;28;20484;-85
2022/04/10 05:40:10;;;;;;;14.10;5.30;;;;;;;9.53;nan;100923.00;4958691;28;20442;-86
2022/04/10 05:43:07;;;;;;;9.23;4.33;;;;;;;9.56;nan;100927.25;4943244;28;20454;-85
2022/04/10 05:45:36;;;;;;;12.13;5.20;;;;;;;9.56;nan;100922.63;4941751;28;20465;-85
2022/04/10 05:48:03;;;;;;;11.67;5.30;;;;;;;9.54;nan;100912.94;4958737;28;20462;-85
2022/04/10 05:50:32;;;;;;;14.30;5.70;;;;;;;9.48;nan;100913.66;4958660;28;20806;-87
2022/04/10 05:53:01;;;;;;;18.03;6.30;;;;;;;9.41;nan;100908.09;4958830;28;20520;-85
2022/04/10 05:55:29;;;;;;;12.23;5.47;;;;;;;9.36;nan;100907.78;4958808;28;20512;-86
2022/04/10 05:57:56;;;;;;;15.00;5.17;;;;;;;9.39;nan;100915.63;4958479;28;20489;-86
2022/04/10 06:00:27;;;;;;;14.90;5.40;;;;;;;9.29;nan;100898.63;4943104;28;20855;-86
2022/04/10 06:02:55;;;;;;;13.73;5.87;;;;;;;9.33;nan;100899.97;4942672;28;20449;-85
2022/04/10 06:05:25;;;;;;;12.73;5.47;;;;;;;9.24;nan;100884.69;4942443;28;20527;-86
2022/04/10 06:07:53;;;;;;;9.40;4.07;;;;;;;9.32;nan;100893.66;4942802;28;20813;-85
2022/04/10 06:10:22;;;;;;;8.60;4.17;;;;;;;9.36;nan;100902.34;4942836;28;20438;-85
2022/04/10 06:12:50;;;;;;;10.57;4.40;;;;;;;9.33;nan;100898.09;4958466;28;20454;-86
2022/04/10 06:15:19;;;;;;;12.57;4.30;;;;;;;9.33;nan;100899.97;4942542;28;20463;-86
2022/04/10 08:58:01;;;;;;;14.10;6.60;;;;;;;15.85;nan;100860.41;4977269;28;20823;-86
2022/04/10 09:00:29;;;;;;;11.00;5.13;;;;;;;15.99;nan;100869.38;4976908;28;21035;-86
2022/04/10 09:02:56;;;;;;;14.90;6.00;;;;;;;16.08;nan;100851.50;4959694;28;20513;-86
2022/04/10 09:05:24;;;;;;;19.97;5.93;;;;;;;16.30;nan;100857.41;4943685;28;20454;-86
2022/04/10 09:08:17;;;;;;;15.27;5.27;;;;;;;16.52;nan;100862.25;4959949;28;20453;-87
2022/04/10 09:11:03;;;;;;;15.83;5.27;;;;;;;16.70;nan;100857.84;4959895;28;20490;-86
2022/04/10 09:13:47;;;;;;;17.53;5.87;;;;;;;16.84;nan;100851.91;4944010;28;20449;-86
2022/04/10 09:16:16;;;;;;;18.47;4.70;;;;;;;16.95;nan;100853.03;4944312;28;20448;-87
2022/04/10 09:18:50;;;;;;;13.60;5.13;;;;;;;17.10;nan;100870.03;4941548;28;20452;-88
2022/04/10 09:21:20;;;;;;;10.90;5.20;;;;;;;17.15;nan;100867.41;4942428;28;20450;-86
2022/04/10 09:23:57;;;;;;;14.23;5.47;;;;;;;17.37;nan;100870.47;4909115;29;20447;-87
2022/04/10 09:26:26;;;;;;;13.37;4.83;;;;;;;17.53;nan;100868.97;4940333;28;20457;-86
2022/04/10 09:28:54;;;;;;;13.83;3.93;;;;;;;17.74;nan;100862.06;4924541;29;20540;-86
2022/04/10 09:31:25;;;;;;;8.80;4.43;;;;;;;17.98;nan;100860.19;4908872;29;20526;-86
2022/04/10 09:33:53;;;;;;;10.93;3.43;;;;;;;18.09;nan;100862.13;4940002;29;20459;-86
2022/04/10 09:36:28;;;;;;;16.10;4.03;;;;;;;18.18;nan;100858.72;4908593;29;20515;-86
2022/04/10 09:38:57;;;;;;;12.13;3.50;;;;;;;18.25;nan;100858.63;4939787;28;20446;-86
2022/04/10 09:41:25;;;;;;;11.87;3.00;;;;;;;18.35;nan;100867.13;4939622;28;20459;-86
2022/04/10 09:43:53;;;;;;;8.53;2.93;;;;;;;18.35;nan;100853.31;4924193;28;20446;-86
2022/04/10 09:46:20;;;;;;;11.50;2.20;;;;;;;18.47;nan;100867.97;4923721;29;20851;-85
2022/04/10 09:48:53;;;;;;;7.77;2.30;;;;;;;18.57;nan;100873.72;4923733;29;20465;-86
2022/04/10 09:51:21;;;;;;;8.17;2.50;;;;;;;18.68;nan;100852.66;4924726;28;20459;-86
2022/04/10 09:54:03;;;;;;;17.97;2.40;;;;;;;18.88;nan;100857.78;4939637;29;20942;-86
2022/04/10 09:56:32;;;;;;;8.00;2.10;;;;;;;18.97;nan;100845.25;4908437;28;20450;-87
2022/04/10 09:59:01;;;;;;;7.67;2.43;;;;;;;19.08;nan;100857.34;4924291;29;20448;-87
2022/04/10 10:01:29;;;;;;;5.77;1.80;;;;;;;19.09;nan;100842.41;4923412;28;20459;-88
2022/04/10 10:03:57;;;;;;;7.30;2.83;;;;;;;19.05;nan;100844.81;4924076;29;20450;-88
2022/04/10 10:06:26;;;;;;;6.63;2.30;;;;;;;19.13;nan;100847.22;4924192;28;20451;-87
2022/04/10 10:08:53;;;;;;;14.10;2.63;;;;;;;19.26;nan;100833.03;4923426;29;20450;-86
2022/04/10 10:11:22;;;;;;;13.43;2.63;;;;;;;19.40;nan;100843.84;4907923;29;21004;-87
2022/04/10 10:13:50;;;;;;;9.13;2.50;;;;;;;19.41;nan;100834.44;4908197;29;20462;-88
2022/04/10 10:16:18;;;;;;;9.07;2.63;;;;;;;19.60;nan;100838.69;4923353;29;20455;-88
2022/04/10 10:18:46;;;;;;;15.43;2.80;;;;;;;19.80;nan;100833.47;4923586;29;21049;-88
2022/04/10 17:37:56;;;;;;;18.80;3.47;;;;;;;20.83;nan;100511.56;5896730;23;20428;-91
2022/04/10 17:40:26;;;;;;;10.30;2.70;;;;;;;20.63;nan;100493.66;4879117;29;20464;-90
2022/04/10 17:43:39;;;;;;;8.97;2.80;;;;;;;20.61;nan;100506.13;4901443;29;20444;-93
2022/04/10 17:46:59;;;;;;;;;;;;;;;;;;;;;
2022/04/10 17:49:39;;;;;;;4.87;1.70;;;;;;;20.36;nan;100503.97;4938615;29;20460;-96
2022/04/10 17:56:45;;;;;;;;;;;;;;;;;;;;;
2022/04/10 18:00:12;;;;;;;6.97;1.70;;;;;;;20.68;nan;100502.03;4899604;29;20485;-91
2022/04/10 18:03:15;;;;;;;4.50;1.57;;;;;;;20.76;nan;100499.88;4859961;29;20447;-91
2022/04/10 18:06:59;;;;;;;;;;;;;;;;;;;;;
2022/04/10 18:10:17;;;;;;;7.63;1.20;;;;;;;20.54;nan;100516.63;4856846;29;20969;-91
2022/04/10 18:28:49;;;;;;;;;;;;;;;;;;;;;
2022/04/10 18:36:44;;;;;;;;;;;;;;;;;;;;;
2022/04/10 18:44:12;;;;;;;5.73;1.40;;;;;;;18.92;nan;100521.91;4699163;30;20574;-93
2022/04/10 18:51:18;;;;;;;5.77;1.60;;;;;;;18.69;nan;100526.78;4682199;30;20511;-91
2022/04/10 18:53:44;;;;;;;3.67;1.30;;;;;;;18.47;nan;100510.91;4674837;30;20485;-90
2022/04/10 18:56:10;;;;;;;7.03;1.63;;;;;;;18.49;nan;100528.09;4685159;30;20448;-90
2022/04/10 18:58:51;;;;;;;6.33;1.90;;;;;;;18.46;nan;100539.72;4667392;30;21004;-90
2022/04/10 19:01:22;;;;;;;3.83;2.10;;;;;;;18.30;nan;100530.28;4685568;30;20449;-90
2022/04/10 19:04:30;;;;;;;;;;;;;;;;;;;;;
2022/04/10 19:07:36;;;;;;;8.50;2.70;;;;;;;18.22;nan;100538.16;4784806;29;20451;-90
2022/04/10 19:10:31;;;;;;;;;;;;;;;;;;;;;
2022/04/10 19:13:25;;;;;;;5.20;1.90;;;;;;;18.12;nan;100540.72;4775758;30;20626;-91
2022/04/10 19:16:07;;;;;;;11.40;2.37;;;;;;;18.13;nan;100554.31;4787205;29;20467;-90
2022/04/10 19:18:37;;;;;;;7.03;2.33;;;;;;;17.99;nan;100544.66;4786944;30;20494;-90
2022/04/10 19:21:10;;;;;;;5.77;2.17;;;;;;;17.91;nan;100531.22;4772434;30;20458;-90
2022/04/10 19:23:43;;;;;;;10.07;1.87;;;;;;;17.90;nan;100538.66;4796175;29;20455;-91
2022/04/10 19:26:20;;;;;;;11.87;1.83;;;;;;;17.91;nan;100556.94;4820724;29;20458;-90
2022/04/10 19:28:48;;;;;;;9.63;2.47;;;;;;;17.91;nan;100554.16;4833397;29;20438;-90
2022/04/10 19:31:31;;;;;;;8.67;2.03;;;;;;;17.81;nan;100540.16;4850472;29;20461;-90
2022/04/10 19:34:17;;;;;;;8.97;1.97;;;;;;;17.78;nan;100546.19;4836010;29;20466;-90
2022/04/10 19:36:48;;;;;;;7.77;1.57;;;;;;;17.76;nan;100551.13;4888501;29;20970;-91
2022/04/10 19:39:22;;;;;;;6.00;1.93;;;;;;;17.67;nan;100544.31;4867952;29;20875;-91
2022/04/10 19:41:51;;;;;;;10.03;3.00;;;;;;;17.73;nan;100557.13;4852219;29;20478;-91
2022/04/10 19:53:34;;;;;;;12.00;3.90;;;;;;;17.62;nan;100549.69;4893877;29;20432;-91
2022/04/10 19:55:48;;;;;;;13.00;4.23;;;;;;;17.64;nan;100566.91;4857029;29;20470;-91
2022/04/10 19:58:20;;;;;;;17.43;4.17;;;;;;;17.60;nan;100555.47;4851527;29;20496;-91
2022/04/10 20:00:50;;;;;;;17.97;4.60;;;;;;;17.51;nan;100547.81;4852358;29;20453;-91
2022/04/10 20:03:24;;;;;;;8.83;4.80;;;;;;;17.44;nan;100533.28;4852012;29;20513;-91
2022/04/10 20:05:53;;;;;;;13.73;6.10;;;;;;;17.48;nan;100548.31;4851651;29;20461;-91
2022/04/10 20:08:27;;;;;;;12.70;5.40;;;;;;;17.41;nan;100536.53;4853687;29;20441;-90
2022/04/10 20:10:58;;;;;;;9.30;3.43;;;;;;;17.39;nan;100545.06;4866866;29;20450;-90
2022/04/10 20:13:27;;;;;;;7.70;2.40;;;;;;;17.45;nan;100560.69;4852401;29;20445;-91
2022/04/10 20:16:49;;;;;;;12.23;2.43;;;;;;;17.31;nan;100550.13;4854500;29;20450;-91
2022/04/10 20:18:55;;;;;;;8.03;2.80;;;;;;;17.23;nan;100545.81;4861700;29;20492;-91
2022/04/10 20:21:25;;;;;;;11.40;2.97;;;;;;;17.29;nan;100560.59;4851145;29;20456;-91
2022/04/10 20:24:01;;;;;;;16.70;3.60;;;;;;;17.23;nan;100563.22;4867268;29;20763;-91
2022/04/10 20:26:43;;;;;;;9.13;3.20;;;;;;;17.14;nan;100556.38;4856258;29;20458;-90
2022/04/10 20:29:17;;;;;;;7.20;2.20;;;;;;;17.07;nan;100547.41;4855529;29;20441;-91
2022/04/10 20:31:46;;;;;;;15.10;3.67;;;;;;;17.11;nan;100558.81;4855520;29;20449;-90
2022/04/10 20:38:21;;;;;;;12.70;2.60;;;;;;;16.85;nan;100549.94;4901306;29;20453;-89
2022/04/10 20:40:50;;;;;;;4.23;1.90;;;;;;;16.83;nan;100554.00;4865359;29;20806;-90
2022/04/10 20:43:28;;;;;;;9.20;3.57;;;;;;;16.74;nan;100553.50;4876812;29;20459;-90
2022/04/10 20:45:58;;;;;;;3.90;2.10;;;;;;;16.62;nan;100547.13;4874051;29;20520;-91
2022/04/10 20:48:32;;;;;;;5.63;2.27;;;;;;;16.65;nan;100565.16;4872594;29;20964;-90
2022/04/10 20:51:01;;;;;;;7.10;1.90;;;;;;;16.50;nan;100558.16;4872949;29;20456;-90
2022/04/10 20:53:33;;;;;;;11.43;2.40;;;;;;;16.51;nan;100570.03;4889829;29;20468;-91
2022/04/10 20:56:05;;;;;;;7.80;2.40;;;;;;;16.42;nan;100561.25;4875233;29;20491;-89
2022/04/10 20:58:46;;;;;;;7.60;2.00;;;;;;;16.31;nan;100548.28;4797939;29;21005;-90
2022/04/10 21:01:24;;;;;;;7.73;2.27;;;;;;;16.37;nan;100563.84;4824966;29;20880;-90
2022/04/10 21:04:14;;;;;;;;;;;;;;;;;;;;;
2022/04/10 21:06:52;;;;;;;12.83;2.27;;;;;;;16.07;nan;100532.72;4809917;29;20473;-89
2022/04/10 21:09:40;;;;;;;11.00;2.23;;;;;;;16.03;nan;100546.16;4824582;29;20513;-90
2022/04/10 21:12:22;;;;;;;11.00;1.87;;;;;;;15.96;nan;100550.09;4819247;29;20461;-90
2022/04/10 21:14:55;;;;;;;8.23;2.00;;;;;;;15.94;nan;100552.25;4824243;29;20578;-90
2022/04/10 21:17:26;;;;;;;6.70;2.30;;;;;;;15.80;nan;100551.56;4849751;29;20910;-90
2022/04/10 21:20:21;;;;;;;9.00;2.17;;;;;;;15.61;nan;100531.47;4872738;29;20484;-91
2022/04/10 21:23:16;;;;;;;7.80;1.60;;;;;;;15.51;nan;100531.16;4873156;29;20439;-89
2022/04/10 21:25:48;;;;;;;11.03;2.17;;;;;;;15.40;nan;100529.16;4888365;29;20445;-89
2022/04/10 21:28:26;;;;;;;5.07;1.67;;;;;;;15.36;nan;100550.00;4871989;29;20453;-89
2022/04/10 21:31:10;;;;;;;5.13;1.53;;;;;;;15.15;nan;100527.34;4873763;29;20815;-91
2022/04/10 21:33:45;;;;;;;16.23;2.00;;;;;;;15.19;nan;100550.63;4871648;29;20461;-89
2022/04/10 21:36:16;;;;;;;11.90;1.60;;;;;;;15.10;nan;100559.38;4872831;29;20970;-89
2022/04/10 21:38:55;;;;;;;7.13;1.50;;;;;;;14.95;nan;100558.91;4871823;29;20480;-89
2022/04/10 21:41:27;;;;;;;18.43;1.90;;;;;;;14.85;nan;100554.75;4871929;29;20478;-89
2022/04/10 21:44:04;;;;;;;5.17;1.30;;;;;;;14.77;nan;100571.56;4849518;29;20937;-89
2022/04/10 21:46:32;;;;;;;6.03;1.57;;;;;;;14.74;nan;100562.91;4834140;29;20457;-89
2022/04/10 21:49:02;;;;;;;8.97;1.63;;;;;;;14.66;nan;100561.28;4833898;29;20552;-89
2022/04/10 21:51:29;;;;;;;8.50;1.60;;;;;;;14.63;nan;100571.88;4849136;29;20930;-91
2022/04/10 21:54:00;;;;;;;15.13;2.47;;;;;;;14.49;nan;100566.50;4776421;29;20466;-89
2022/04/10 21:56:30;;;;;;;9.60;2.00;;;;;;;14.42;nan;100560.25;4791776;29;20465;-89
2022/04/10 21:58:58;;;;;;;5.87;2.00;;;;;;;14.37;nan;100556.44;4776146;29;20490;-90
2022/04/10 22:01:32;;;;;;;10.77;1.50;;;;;;;14.36;nan;100555.59;4784266;29;20462;-90
2022/04/10 22:04:04;;;;;;;5.93;1.40;;;;;;;14.32;nan;100554.34;4827295;29;20542;-90
2022/04/10 22:06:32;;;;;;;8.50;2.17;;;;;;;14.27;nan;100543.16;4827469;29;20460;-90
2022/04/10 22:09:00;;;;;;;4.30;1.47;;;;;;;14.33;nan;100544.19;4827049;29;20460;-89
2022/04/10 22:11:29;;;;;;;9.90;2.13;;;;;;;14.31;nan;100541.66;4776027;29;20942;-89
2022/04/10 22:13:57;;;;;;;2.40;1.10;;;;;;;14.28;nan;100549.50;4790662;29;20523;-91
2022/04/10 22:16:43;;;;;;;8.10;2.20;;;;;;;14.23;nan;100549.34;4805546;29;20462;-90
2022/04/10 22:19:11;;;;;;;5.27;1.23;;;;;;;14.11;nan;100555.56;4859811;29;20478;-91
2022/04/10 22:21:39;;;;;;;15.87;1.67;;;;;;;14.00;nan;100550.78;4863193;29;20462;-89
2022/04/10 22:24:10;;;;;;;7.80;1.43;;;;;;;13.95;nan;100552.50;4863997;29;20442;-89
2022/04/10 22:26:39;;;;;;;8.50;2.00;;;;;;;13.92;nan;100542.78;4863556;29;20519;-90
2022/04/10 22:29:09;;;;;;;7.20;1.83;;;;;;;13.93;nan;100544.47;4872636;29;20459;-90
2022/04/10 22:31:37;;;;;;;10.47;1.87;;;;;;;13.99;nan;100548.25;4871023;29;20445;-90
2022/04/10 22:34:17;;;;;;;12.97;2.07;;;;;;;14.03;nan;100555.00;4870727;29;20952;-90
2022/04/10 22:36:45;;;;;;;14.70;1.90;;;;;;;13.92;nan;100544.69;4917874;29;20448;-90
2022/04/10 22:39:19;;;;;;;13.40;2.40;;;;;;;13.93;nan;100547.22;4886301;29;20995;-90
2022/04/10 22:45:47;;;;;;;18.97;1.97;;;;;;;13.93;nan;100524.38;4899022;29;20496;-90
2022/04/10 22:48:15;;;;;;;9.60;1.70;;;;;;;14.05;nan;100533.59;4882268;29;20513;-90
2022/04/10 22:50:56;;;;;;;9.23;2.13;;;;;;;14.08;nan;100530.41;4853536;29;20458;-90
2022/04/10 22:53:25;;;;;;;16.67;1.70;;;;;;;14.07;nan;100528.72;4853077;29;20473;-91
2022/04/10 22:55:52;;;;;;;6.83;1.60;;;;;;;14.02;nan;100525.81;4869337;29;20969;-91
2022/04/10 22:58:23;;;;;;;7.43;1.53;;;;;;;14.06;nan;100527.03;4882595;29;20824;-91
2022/04/10 23:00:52;;;;;;;9.90;1.90;;;;;;;14.12;nan;100527.00;4898026;29;20515;-91
2022/04/10 23:03:34;;;;;;;8.47;1.83;;;;;;;14.17;nan;100523.59;4884890;29;20530;-91
2022/04/10 23:06:03;;;;;;;6.40;1.67;;;;;;;14.23;nan;100527.38;4882996;29;20992;-91
2022/04/10 23:08:41;;;;;;;8.73;1.80;;;;;;;14.16;nan;100510.91;4882559;29;20438;-91
2022/04/10 23:11:21;;;;;;;7.67;1.83;;;;;;;14.20;nan;100514.06;4882022;29;20493;-91
2022/04/10 23:13:55;;;;;;;14.80;1.80;;;;;;;14.28;nan;100520.13;4882432;29;20462;-92
2022/04/10 23:16:23;;;;;;;8.17;1.67;;;;;;;14.29;nan;100510.81;4882710;29;20457;-90
2022/04/10 23:18:54;;;;;;;5.00;1.73;;;;;;;14.38;nan;100525.97;4882879;29;20996;-90
2022/04/10 23:21:32;;;;;;;9.70;1.90;;;;;;;14.28;nan;100498.13;4869570;29;20461;-92
2022/04/10 23:24:16;;;;;;;5.10;1.40;;;;;;;14.44;nan;100519.59;4897467;29;20550;-91
2022/04/10 23:26:45;;;;;;;7.27;1.73;;;;;;;14.50;nan;100523.34;4882188;29;20454;-91
2022/04/10 23:29:13;;;;;;;13.67;2.00;;;;;;;14.53;nan;100528.41;4882147;29;20461;-89
2022/04/10 23:31:41;;;;;;;4.97;1.50;;;;;;;14.58;nan;100527.75;4882423;29;20450;-91
2022/04/10 23:38:02;;;;;;;4.33;1.87;;;;;;;14.65;nan;100523.00;4822972;29;20436;-90
2022/04/10 23:40:30;;;;;;;4.20;1.57;;;;;;;14.75;nan;100526.94;4815915;29;20483;-91
2022/04/10 23:43:01;;;;;;;4.73;1.70;;;;;;;14.72;nan;100521.03;4810857;29;20464;-90
2022/04/10 23:45:31;;;;;;;16.43;2.10;;;;;;;14.79;nan;100528.16;4826305;29;20469;-91
2022/04/10 23:48:00;;;;;;;4.60;1.53;;;;;;;14.86;nan;100531.69;4841132;29;20456;-92
2022/04/10 23:50:29;;;;;;;5.73;1.67;;;;;;;14.97;nan;100523.75;4841116;29;20864;-92
2022/04/10 23:53:05;;;;;;;7.20;1.50;;;;;;;15.13;nan;100531.41;4890033;29;20459;-92
2022/04/10 23:55:36;;;;;;;5.43;1.73;;;;;;;15.25;nan;100532.31;4870194;29;20450;-92
2022/04/10 23:58:11;;;;;;;11.03;1.97;;;;;;;15.29;nan;100527.19;4872749;29;20452;-91
